createdAt,value
2019-01-19T00:00:10.011Z,26.27
2019-01-19T00:06:53.044Z,27.13
2019-01-19T00:13:37.534Z,26.47
2019-01-19T00:20:46.816Z,24.10
2019-01-19T00:27:37.916Z,27.00
2019-01-19T00:34:12.474Z,27.43
2019-01-19T00:40:38.478Z,27.47
2019-01-19T00:47:21.845Z,24.50
2019-01-19T00:53:32.884Z,25.40
2019-01-19T00:59:41.658Z,27.83
2019-01-19T01:06:34.290Z,24.00
2019-01-19T01:13:22.474Z,35.23
2019-01-19T01:19:49.090Z,24.80
2019-01-19T01:26:36.056Z,26.00
2019-01-19T01:33:32.216Z,28.30
2019-01-19T01:40:35.516Z,27.47
2019-01-19T01:47:03.416Z,27.00
2019-01-19T01:53:44.568Z,27.33
2019-01-19T02:00:20.434Z,28.93
2019-01-19T02:06:56.471Z,28.63
2019-01-19T02:13:31.502Z,25.57
2019-01-19T02:20:22.958Z,26.60
2019-01-19T02:27:03.930Z,26.27
2019-01-19T02:33:50.831Z,31.67
2019-01-19T02:40:00.999Z,24.77
2019-01-19T02:46:33.447Z,26.13
2019-01-19T02:53:05.599Z,24.57
2019-01-19T02:59:45.251Z,23.60
2019-01-19T03:06:17.635Z,22.57
2019-01-19T03:12:46.296Z,24.27
2019-01-19T03:19:27.949Z,20.30
2019-01-19T03:26:22.047Z,23.83
2019-01-19T03:32:44.282Z,18.40
2019-01-19T03:39:29.781Z,20.70
2019-01-19T03:46:06.803Z,22.30
2019-01-19T03:53:10.246Z,20.73
2019-01-19T04:00:05.625Z,24.83
2019-01-19T04:06:44.190Z,22.83
2019-01-19T04:13:32.206Z,23.17
2019-01-19T04:20:32.932Z,28.87
2019-01-19T04:26:40.015Z,29.30
2019-01-19T04:32:44.435Z,25.17
2019-01-19T04:38:48.851Z,25.30
2019-01-19T04:44:53.055Z,24.70
2019-01-19T04:50:57.261Z,22.10
2019-01-19T04:57:01.484Z,23.33
2019-01-19T05:03:05.976Z,21.53
2019-01-19T05:09:10.303Z,22.37
2019-01-19T05:15:17.351Z,25.57
2019-01-19T05:21:21.956Z,26.53
2019-01-19T05:27:26.171Z,30.40
2019-01-19T05:33:30.486Z,25.30
2019-01-19T05:39:34.764Z,31.47
2019-01-19T05:45:39.019Z,26.70
2019-01-19T05:51:43.309Z,27.03
2019-01-19T05:57:47.810Z,28.13
2019-01-19T06:03:52.078Z,31.83
2019-01-19T06:09:56.381Z,25.97
2019-01-19T06:16:00.590Z,26.83
2019-01-19T06:22:05.340Z,23.13
2019-01-19T06:28:09.644Z,23.63
2019-01-19T06:34:13.878Z,26.73
2019-01-19T06:40:19.118Z,24.10
2019-01-19T06:46:23.453Z,24.20
2019-01-19T06:52:27.771Z,26.33
2019-01-19T06:58:32.031Z,25.23
2019-01-19T07:04:36.306Z,21.37
2019-01-19T07:10:40.731Z,24.63
2019-01-19T07:16:45.221Z,23.60
2019-01-19T07:22:49.546Z,21.53
2019-01-19T07:28:54.121Z,22.97
2019-01-19T07:34:58.467Z,23.53
2019-01-19T07:41:02.699Z,22.67
2019-01-19T07:47:07.004Z,19.33
2019-01-19T07:53:11.239Z,24.27
2019-01-19T07:59:15.439Z,24.03
2019-01-19T08:05:19.655Z,22.27
2019-01-19T08:11:23.855Z,25.53
2019-01-19T08:17:28.119Z,25.50
2019-01-19T08:23:32.306Z,23.23
2019-01-19T08:29:36.516Z,22.20
2019-01-19T08:35:45.189Z,22.23
2019-01-19T08:41:49.538Z,22.30
2019-01-19T08:47:53.808Z,23.93
2019-01-19T08:53:58.163Z,27.13
2019-01-19T09:00:02.385Z,22.77
2019-01-19T09:06:06.730Z,19.80
2019-01-19T09:12:11.023Z,21.90
2019-01-19T09:18:15.220Z,16.47
2019-01-19T09:24:27.371Z,22.40
2019-01-19T09:30:31.600Z,19.30
2019-01-19T09:36:35.879Z,19.27
2019-01-19T09:42:40.153Z,20.03
2019-01-19T09:48:44.394Z,23.03
2019-01-19T09:54:48.774Z,18.13
2019-01-19T10:00:53.091Z,19.47
2019-01-19T10:06:57.312Z,17.00
2019-01-19T10:13:01.592Z,21.43
2019-01-19T10:19:05.882Z,22.77
2019-01-19T10:25:11.286Z,20.07
2019-01-19T10:31:15.511Z,19.70
2019-01-19T10:37:19.803Z,20.70
2019-01-19T10:43:24.064Z,17.50
2019-01-19T10:49:28.313Z,19.00
2019-01-19T10:55:32.611Z,20.17
2019-01-19T11:01:36.929Z,24.47
2019-01-19T11:07:42.141Z,25.80
2019-01-19T11:13:46.417Z,19.53
2019-01-19T11:19:50.632Z,28.13
2019-01-19T11:25:54.927Z,16.67
2019-01-19T11:31:59.362Z,19.00
2019-01-19T11:38:03.836Z,16.57
2019-01-19T11:44:08.117Z,20.93
2019-01-19T11:50:12.529Z,15.23
2019-01-19T11:56:16.733Z,16.43
2019-01-19T12:02:21.103Z,38.97
2019-01-19T12:08:25.452Z,16.33
2019-01-19T12:14:29.664Z,17.37
2019-01-19T12:20:42.374Z,19.00
2019-01-19T12:26:46.574Z,19.50
2019-01-19T12:32:50.926Z,21.93
2019-01-19T12:38:55.406Z,20.03
2019-01-19T12:45:00.559Z,14.93
2019-01-19T12:51:07.195Z,17.27
2019-01-19T12:57:11.625Z,15.53
2019-01-19T13:03:15.972Z,15.70
2019-01-19T13:09:28.899Z,17.10
2019-01-19T13:16:12.210Z,15.03
2019-01-19T13:23:09.847Z,19.30
2019-01-19T13:29:50.927Z,15.83
2019-01-19T13:36:37.247Z,21.57
2019-01-19T13:43:17.061Z,18.13
2019-01-19T13:50:21.051Z,16.50
2019-01-19T13:57:15.527Z,16.97
2019-01-19T14:03:44.139Z,17.70
2019-01-19T14:10:23.334Z,17.43
2019-01-19T14:16:57.981Z,15.37
2019-01-19T14:23:30.631Z,15.20
2019-01-19T14:30:10.929Z,18.97
2019-01-19T14:36:55.641Z,18.77
2019-01-19T14:43:28.479Z,18.07
2019-01-19T14:50:14.361Z,18.00
2019-01-19T14:56:43.088Z,23.53
2019-01-19T15:03:28.082Z,20.87
2019-01-19T15:09:49.871Z,15.50
2019-01-19T15:16:27.098Z,32.70
2019-01-19T15:23:22.518Z,20.13
2019-01-19T15:29:42.900Z,15.90
2019-01-19T15:36:12.251Z,18.70
2019-01-19T15:42:48.272Z,19.80
2019-01-19T15:49:19.183Z,19.80
2019-01-19T15:56:08.533Z,15.83
2019-01-19T16:02:57.553Z,20.67
2019-01-19T16:09:38.446Z,18.17
2019-01-19T16:16:16.456Z,22.10
2019-01-19T16:22:55.088Z,18.67
2019-01-19T16:29:20.960Z,17.57
2019-01-19T16:35:56.560Z,18.27
2019-01-19T16:42:42.593Z,16.90
2019-01-19T16:49:05.979Z,18.40
2019-01-19T16:55:23.356Z,17.13
2019-01-19T17:02:08.811Z,18.07
2019-01-19T17:08:55.447Z,25.10
2019-01-19T17:15:37.113Z,19.70
2019-01-19T17:22:32.866Z,17.30
2019-01-19T17:29:08.165Z,20.80
2019-01-19T17:35:23.165Z,27.30
2019-01-19T17:41:56.439Z,25.07
2019-01-19T17:48:44.817Z,32.03
2019-01-19T17:55:39.053Z,24.20
2019-01-19T18:02:36.758Z,30.40
2019-01-19T18:09:20.750Z,32.87
2019-01-19T18:16:20.799Z,34.63
2019-01-19T18:23:04.851Z,34.40
2019-01-19T18:29:44.201Z,27.87
2019-01-19T18:36:28.216Z,30.20
2019-01-19T18:42:51.820Z,24.50
2019-01-19T18:49:46.076Z,22.30
2019-01-19T18:56:18.573Z,24.73
2019-01-19T19:03:21.781Z,25.67
2019-01-19T19:09:47.375Z,21.40
2019-01-19T19:16:20.991Z,22.67
2019-01-19T19:23:03.458Z,22.50
2019-01-19T19:30:00.608Z,24.00
2019-01-19T19:37:00.587Z,27.70
2019-01-19T19:43:45.011Z,26.83
2019-01-19T19:50:18.602Z,26.03
2019-01-19T19:56:21.265Z,27.00
2019-01-19T20:02:28.868Z,33.77
2019-01-19T20:08:33.086Z,37.17
2019-01-19T20:14:37.519Z,39.67
2019-01-19T20:20:41.860Z,36.57
2019-01-19T20:26:46.122Z,34.50
2019-01-19T20:32:50.516Z,35.50
2019-01-19T20:38:54.863Z,31.33
2019-01-19T20:44:59.048Z,25.70
2019-01-19T20:51:03.284Z,28.30
2019-01-19T20:57:07.565Z,26.27
2019-01-19T21:03:11.788Z,27.13
2019-01-19T21:09:16.180Z,28.40
2019-01-19T21:15:20.443Z,29.20
2019-01-19T21:21:24.647Z,23.60
2019-01-19T21:27:28.844Z,26.07
2019-01-19T21:33:33.254Z,23.53
2019-01-19T21:39:37.445Z,25.30
2019-01-19T21:45:41.735Z,23.10
2019-01-19T21:51:46.023Z,27.77
2019-01-19T21:57:50.257Z,29.07
2019-01-19T22:03:54.558Z,31.17
2019-01-19T22:09:58.894Z,32.20
2019-01-19T22:16:03.271Z,37.37
2019-01-19T22:22:07.487Z,31.83
2019-01-19T22:28:11.753Z,26.77
2019-01-19T22:34:16.027Z,28.83
2019-01-19T22:40:20.445Z,29.30
2019-01-19T22:46:24.753Z,26.40
2019-01-19T22:52:29.113Z,29.17
2019-01-19T22:58:33.402Z,32.03
2019-01-19T23:04:38.211Z,29.20
2019-01-19T23:10:42.736Z,28.47
2019-01-19T23:16:47.004Z,29.50
2019-01-19T23:22:51.395Z,28.17
2019-01-19T23:28:55.597Z,28.43
2019-01-19T23:34:59.918Z,29.17
2019-01-19T23:41:08.812Z,28.07
2019-01-19T23:47:10.262Z,30.30
2019-01-19T23:53:14.581Z,30.23
2019-01-19T23:59:18.889Z,26.00
